Latest Weather Observations for Tuggeranong

IDN60901

Issued at 6:31 am EDT Monday 17 December 2018 (issued every 10 minutes, with the page automatically refreshed every 10 minutes)

About weather observations | Map of Canberra area stations | Latest observations for Canberra area | Other Formats
Station Details ID: 070339 Name: TUGGERANONG (ISABELLA PLAINS) AWS Lat: -35.42 Lon: 149.09 Height: 586.7 m
Data from the previous 72 hours. | See also: Recent months at Tuggeranong
Date/Time
EDT
Temp
°C
App
Temp
°C
Dew
Point
°C
Rel
Hum
%
Delta-T
°C
Wind Press
QNH
hPa
Press
MSL
hPa
Rain since
9am
mm
Dir  Spd
km/h
Gust
km/h
Spd
kts
Gust
kts
17/06:30am 13.1 13.6 11.7 91 0.8 CALM 0 9 0 5 1011.0 1008.5 0.0
17/06:00am 11.2 11.5 11.0 99 0.1 CALM 0 0 0 0 1011.1 1008.7 0.0
17/05:30am 10.9 11.1 10.6 98 0.2 CALM 0 0 0 0 1010.8 1008.3 0.0
17/05:00am 11.3 11.5 10.7 96 0.3 CALM 0 0 0 0 1010.5 1008.0 0.0
17/04:30am 11.4 11.5 10.1 92 0.7 CALM 0 0 0 0 1010.1 1007.7 0.0
17/04:00am 12.2 11.3 10.8 91 0.8 E 6 9 3 5 1009.9 1007.5 0.0
17/03:30am 11.9 11.4 10.8 93 0.6 ENE 4 7 2 4 1009.9 1007.5 0.0
17/03:00am 11.8 12.0 10.5 92 0.7 CALM 0 0 0 0 1009.9 1007.5 0.0
17/02:30am 12.2 12.5 10.9 92 0.7 CALM 0 0 0 0 1009.8 1007.4 0.0
17/02:00am 12.5 12.9 11.2 92 0.7 CALM 0 0 0 0 1009.9 1007.5 0.0
17/01:30am 13.1 13.5 11.2 88 1.0 CALM 0 0 0 0 1010.0 1007.6 0.0
17/01:00am 13.4 13.8 11.1 86 1.3 CALM 0 0 0 0 1010.1 1007.7 0.0
17/12:30am 14.0 14.3 11.0 82 1.6 CALM 0 0 0 0 1010.1 1007.7 0.0
17/12:00am 14.9 14.9 11.3 79 2.0 ENE 2 7 1 4 1010.1 1007.7 0.0
 
Date/Time
EDT
Temp
°C
App
Temp
°C
Dew
Point
°C
Rel
Hum
%
Delta-T
°C
Wind Press
QNH
hPa
Press
MSL
hPa
Rain since
9am
mm
Dir  Spd
km/h
Gust
km/h
Spd
kts
Gust
kts
16/11:30pm 15.5 15.5 11.1 75 2.4 E 2 7 1 4 1010.3 1007.8 0.0
16/11:00pm 15.8 15.9 11.4 75 2.4 ENE 2 6 1 3 1010.1 1007.7 0.0
16/10:30pm 16.5 16.9 11.2 71 2.9 CALM 0 0 0 0 1009.8 1007.4 0.0
16/10:00pm 17.3 17.3 11.1 67 3.5 ESE 2 7 1 4 1009.6 1007.2 0.0
16/09:30pm 18.2 18.5 11.0 63 4.0 CALM 0 0 0 0 1009.4 1006.9 0.0
16/09:00pm 19.4 19.8 11.4 60 4.5 CALM 0 4 0 2 1009.1 1006.6 0.0
16/08:30pm 21.3 19.8 9.2 46 6.6 WNW 7 9 4 5 1008.8 1006.3 0.0
16/08:00pm 22.6 20.3 9.0 42 7.5 WNW 11 19 6 10 1008.6 1006.1 0.0
16/07:30pm 24.0 20.9 8.8 38 8.4 W 15 22 8 12 1008.2 1005.8 0.0
16/07:00pm 24.6 21.6 9.3 38 8.6 WNW 15 24 8 13 1008.0 1005.6 0.0
16/06:30pm 25.1 21.2 9.4 37 8.8 W 20 32 11 17 1007.7 1005.2 0.0
16/06:00pm 25.2 22.0 9.9 38 8.7 NW 17 28 9 15 1007.4 1004.9 0.0
16/05:30pm 24.4 21.5 9.6 39 8.3 NW 15 32 8 17 1007.3 1004.8 0.0
16/05:00pm 24.2 20.6 9.8 40 8.1 NW 19 28 10 15 1007.5 1005.0 0.0
16/04:30pm 23.7 20.1 9.7 41 7.8 WNW 19 30 10 16 1007.6 1005.1 0.0
16/04:00pm 23.8 20.1 10.1 42 7.7 W 20 32 11 17 1007.8 1005.3 0.0
16/03:30pm 24.7 21.7 10.6 41 8.1 WNW 17 32 9 17 1007.6 1005.1 0.0
16/03:00pm 25.5 21.8 10.1 38 8.8 NW 20 35 11 19 1007.4 1004.9 0.0
16/02:30pm 26.8 22.3 10.1 35 9.6 NNW 24 43 13 23 1007.3 1004.8 0.0
16/02:00pm 25.5 20.6 8.5 34 9.4 NNW 24 39 13 21 1007.6 1005.1 0.0
16/01:30pm 25.6 21.3 9.4 36 9.1 NW 22 35 12 19 1007.8 1005.3 0.0
16/01:00pm 25.6 21.0 8.1 33 9.7 NNW 22 39 12 21 1008.0 1005.6 0.0
16/12:30pm 25.8 21.2 8.3 33 9.7 N 22 33 12 18 1008.2 1005.8 0.0
16/12:00pm 25.6 22.1 8.6 34 9.5 NNW 17 30 9 16 1008.6 1006.1 0.0
16/11:30am 24.0 20.6 7.6 35 8.9 NNW 15 26 8 14 1008.9 1006.4 0.0
16/11:00am 22.9 20.2 9.0 41 7.7 NNW 13 20 7 11 1009.2 1006.7 0.0
16/10:30am 22.6 19.5 9.0 42 7.5 NW 15 24 8 13 1009.4 1006.9 0.0
16/10:00am 21.9 19.6 10.4 48 6.5 NNW 13 19 7 10 1009.4 1006.9 0.0
16/09:30am 20.5 18.0 9.7 50 5.9 N 13 20 7 11 1009.4 1006.9 0.0
16/09:00am 20.2 19.4 11.7 58 4.9 NNW 7 13 4 7 1009.4 1006.9 0.0
16/08:30am 19.5 19.2 13.2 67 3.7 WNW 7 11 4 6 1009.1 1006.6 0.0
16/08:00am 18.4 19.2 12.4 68 3.4 CALM 0 0 0 0 1009.1 1006.6 0.0
16/07:30am 17.3 18.0 12.2 72 2.9 CALM 0 0 0 0 1008.9 1006.4 0.0
16/07:00am 15.6 16.4 12.5 82 1.8 CALM 0 0 0 0 1008.7 1006.2 0.0
16/06:30am 14.3 15.6 14.1 99 0.1 CALM 0 4 0 2 1008.4 1005.9 0.0
16/06:00am 13.1 14.0 12.9 99 0.1 CALM 0 7 0 4 1008.0 1005.6 0.0
16/05:30am 13.6 14.5 13.0 96 0.3 CALM 0 0 0 0 1007.6 1005.1 0.0
16/05:00am 13.7 14.6 12.9 95 0.5 CALM 0 0 0 0 1007.4 1004.9 0.0
16/04:30am 14.0 15.1 13.5 97 0.3 CALM 0 0 0 0 1007.1 1004.6 0.0
16/04:00am 14.4 15.4 13.3 93 0.6 CALM 0 0 0 0 1007.2 1004.7 0.0
16/03:30am 14.3 15.2 12.9 91 0.8 CALM 0 0 0 0 1007.2 1004.7 0.0
16/03:00am 14.7 15.4 12.2 85 1.4 CALM 0 0 0 0 1007.3 1004.8 0.0
16/02:30am 14.5 15.3 12.7 89 1.0 CALM 0 0 0 0 1007.4 1004.9 0.0
16/02:00am 14.8 15.5 12.3 85 1.4 CALM 0 0 0 0 1007.4 1004.9 0.0
16/01:30am 15.9 16.8 12.8 82 1.8 CALM 0 0 0 0 1007.4 1004.9 0.0
16/01:00am 16.4 17.6 13.7 84 1.6 CALM 0 0 0 0 1007.4 1004.9 0.0
16/12:30am 17.4 19.1 15.2 87 1.3 CALM 0 0 0 0 1007.4 1004.9 0.0
16/12:00am 18.5 20.3 15.6 83 1.8 CALM 0 6 0 3 1007.3 1004.8 0.0
 
Date/Time
EDT
Temp
°C
App
Temp
°C
Dew
Point
°C
Rel
Hum
%
Delta-T
°C
Wind Press
QNH
hPa
Press
MSL
hPa
Rain since
9am
mm
Dir  Spd
km/h
Gust
km/h
Spd
kts
Gust
kts
15/11:30pm 19.2 21.1 15.7 80 2.1 CALM 0 0 0 0 1007.3 1004.8 0.0
15/11:00pm 20.1 21.8 16.1 78 2.5 NNE 2 6 1 3 1007.2 1004.7 0.0
15/10:30pm 21.1 21.1 16.3 74 3.0 ENE 11 17 6 9 1007.4 1004.9 0.0
15/10:00pm 21.5 20.9 13.4 60 4.8 ENE 9 15 5 8 1007.5 1005.0 0.0
15/09:30pm 20.4 19.0 10.8 54 5.4 ESE 9 11 5 6 1007.4 1004.9 0.0
15/09:00pm 20.4 20.7 10.8 54 5.4 CALM 0 0 0 0 1006.9 1004.4 0.0
15/08:30pm 22.0 22.1 10.2 47 6.6 CALM 0 0 0 0 1006.8 1004.3 0.0
15/08:00pm 23.4 21.3 6.7 34 8.9 NNW 7 11 4 6 1006.7 1004.2 0.0
15/07:30pm 24.2 22.3 7.4 34 9.1 NNW 7 13 4 7 1006.2 1003.7 0.0
15/07:00pm 24.8 22.5 7.4 33 9.4 NNW 9 15 5 8 1005.3 1002.8 0.0
15/06:30pm 25.1 21.8 6.3 30 10.0 N 13 19 7 10 1005.0 1002.4 0.0
15/06:00pm 25.4 22.0 6.1 29 10.3 NW 13 20 7 11 1005.0 1002.4 0.0
15/05:30pm 25.4 21.5 7.1 31 9.9 NW 17 30 9 16 1004.9 1002.3 0.0
15/05:00pm 25.9 22.6 8.0 32 9.9 NW 15 22 8 12 1005.0 1002.4 0.0
15/04:30pm 25.1 22.2 8.1 34 9.3 NNW 13 22 7 12 1005.5 1003.0 0.0
15/04:00pm 24.8 20.8 6.5 31 9.8 NW 17 28 9 15 1005.6 1003.1 0.0
15/03:30pm 24.9 21.4 7.1 32 9.6 NW 15 24 8 13 1005.9 1003.4 0.0
15/03:00pm 25.2 22.5 9.1 36 9.0 NW 13 24 7 13 1006.6 1004.1 0.0
15/02:30pm 24.9 21.7 8.4 35 9.1 NNW 15 22 8 12 1007.1 1004.6 0.0
15/02:00pm 24.2 21.1 9.0 38 8.5 NNW 15 22 8 12 1007.3 1004.8 0.0
15/01:30pm 24.6 22.1 9.7 39 8.4 NW 13 20 7 11 1007.4 1004.9 0.0
15/01:00pm 24.2 21.6 9.4 39 8.3 NNW 13 20 7 11 1007.9 1005.4 0.0
15/12:30pm 24.6 21.0 9.7 39 8.4 NNW 19 28 10 15 1008.2 1005.8 0.0
15/12:00pm 24.1 20.4 9.3 39 8.3 N 19 30 10 16 1008.5 1006.0 0.0
15/11:30am 23.7 20.2 8.6 38 8.3 N 17 26 9 14 1008.5 1006.0 0.0
15/11:00am 23.7 21.0 11.7 47 7.0 NNE 17 28 9 15 1008.6 1006.1 0.0
15/10:30am 22.6 20.2 12.5 53 5.9 NNE 17 32 9 17 1008.6 1006.1 0.0
15/10:00am 21.8 19.6 14.4 63 4.5 N 19 30 10 16 1008.6 1006.1 0.0
15/09:30am 21.3 21.1 16.7 75 2.9 NNE 13 20 7 11 1008.5 1006.0 0.0
15/09:00am 20.9 21.6 17.1 79 2.4 NNE 9 20 5 11 1008.4 1005.9 5.8
15/08:30am 19.9 21.0 18.0 89 1.2 NE 9 13 5 7 1008.2 1005.8 5.8
15/08:00am 19.1 19.9 18.1 94 0.6 NE 11 15 6 8 1007.8 1005.3 5.8
15/07:30am 19.1 20.7 19.1 100 0.0 ENE 9 15 5 8 1007.5 1005.0 5.8
15/07:00am 17.7 20.4 17.7 100 0.0 CALM 0 0 0 0 1007.0 1004.5 5.8
15/06:30am 17.1 19.5 17.1 100 0.0 CALM 0 0 0 0 1006.6 1004.1 5.8
15/06:00am 16.6 18.8 16.6 100 0.0 CALM 0 0 0 0 1006.1 1003.6 5.8
15/05:30am 17.0 19.4 17.0 100 0.0 CALM 0 0 0 0 1006.1 1003.6 5.8
15/05:00am 17.1 18.4 17.1 100 0.0 SW 6 7 3 4 1006.2 1003.7 5.8
15/04:30am 17.3 19.8 17.3 100 0.0 CALM 0 0 0 0 1006.3 1003.8 5.8
15/04:00am 17.1 19.5 17.1 100 0.0 CALM 0 0 0 0 1005.9 1003.4 5.8
15/03:30am 16.8 19.1 16.8 100 0.0 CALM 0 0 0 0 1005.6 1003.1 5.8
15/03:00am 17.0 19.4 17.0 100 0.0 CALM 0 6 0 3 1005.8 1003.3 4.4
15/02:30am 16.8 18.7 16.8 100 0.0 SSW 2 7 1 4 1006.2 1003.7 3.6
15/02:00am 16.9 18.8 16.7 99 0.1 SSE 2 9 1 5 1006.6 1004.1 2.2
15/01:30am 17.5 19.9 17.0 97 0.3 CALM 0 0 0 0 1007.0 1004.5 2.2
15/01:00am 17.6 18.0 16.3 92 0.8 NE 9 15 5 8 1007.1 1004.6 2.2
15/12:30am 17.3 19.0 15.3 88 1.2 CALM 0 0 0 0 1007.5 1005.0 1.8
15/12:00am 17.4 18.9 14.7 84 1.6 CALM 0 7 0 4 1007.3 1004.8 1.8
 
Date/Time
EDT
Temp
°C
App
Temp
°C
Dew
Point
°C
Rel
Hum
%
Delta-T
°C
Wind Press
QNH
hPa
Press
MSL
hPa
Rain since
9am
mm
Dir  Spd
km/h
Gust
km/h
Spd
kts
Gust
kts
14/11:30pm 17.3 18.6 14.2 82 1.8 CALM 0 0 0 0 1007.6 1005.1 1.8
14/11:00pm 17.3 18.1 13.6 79 2.2 ENE 2 7 1 4 1007.8 1005.3 1.8
14/10:30pm 17.5 17.2 13.4 77 2.4 E 7 9 4 5 1008.1 1005.7 1.8
14/10:00pm 17.7 17.6 13.4 76 2.5 NNE 6 9 3 5 1007.9 1005.4 1.8
14/09:30pm 17.9 15.6 13.0 73 2.8 ENE 17 24 9 13 1007.1 1004.6 1.8
14/09:00pm 18.6 17.4 15.1 80 2.1 ENE 15 22 8 12 1006.7 1004.2 1.8
14/08:30pm 18.2 18.7 15.5 84 1.6 SE 7 13 4 7 1006.2 1003.7 1.8
14/08:00pm 18.6 18.7 14.5 77 2.4 SSW 7 9 4 5 1006.4 1003.9 1.2
14/07:30pm 18.3 19.7 14.4 78 2.3 CALM 0 7 0 4 1006.2 1003.7 1.2
14/07:00pm 18.8 18.9 14.5 76 2.6 SSE 7 9 4 5 1005.6 1003.1 1.2
14/06:30pm 18.8 18.8 14.3 75 2.7 ENE 7 11 4 6 1005.5 1003.0 1.2
14/06:00pm 18.1 18.4 14.6 80 2.1 SW 6 7 3 4 1005.3 1002.8 1.2
14/05:30pm 17.8 17.4 14.1 79 2.2 E 9 15 5 8 1004.6 1002.1 1.2
14/05:00pm 17.9 16.3 13.8 77 2.4 E 15 22 8 12 1004.9 1002.3 1.2
14/04:30pm 19.4 19.8 16.2 82 2.0 E 9 19 5 10 1004.1 1001.6 1.2
14/04:00pm 19.8 22.1 18.5 92 0.8 S 4 7 2 4 1003.7 1001.2 0.6
14/03:30pm 20.3 22.6 16.7 80 2.2 CALM 0 7 0 4 1003.9 1001.4 0.6
14/03:00pm 20.0 20.0 16.2 79 2.3 E 11 20 6 11 1004.2 1001.7 0.6
14/02:30pm 22.2 21.4 14.1 60 4.9 E 11 19 6 10 1004.3 1001.8 0.0
14/02:00pm 22.2 21.5 15.3 65 4.2 ENE 13 17 7 9 1004.8 1002.2 0.0
14/01:30pm 21.7 20.4 14.8 65 4.2 ENE 15 20 8 11 1004.6 1002.1 0.0
14/01:00pm 21.8 21.4 18.0 79 2.4 ENE 17 26 9 14 1004.6 1002.1 0.0
14/12:30pm 20.3 18.5 16.1 77 2.6 ENE 20 30 11 16 1004.6 1002.1 0.0
14/12:00pm 19.7 17.9 16.0 79 2.3 ENE 20 32 11 17 1004.3 1001.8 0.0
14/11:30am 20.2 18.0 16.0 77 2.6 ENE 22 30 12 16 1004.4 1001.9 0.0
14/11:00am 20.1 19.4 16.5 80 2.2 ENE 15 26 8 14 1004.3 1001.8 0.0
14/10:30am 19.4 19.9 17.4 88 1.3 ENE 11 15 6 8 1004.6 1002.1 0.0
14/10:00am 17.7 20.3 17.5 99 0.1 CALM 0 0 0 0 1005.0 1002.4 0.0
14/09:30am 17.2 18.5 17.2 100 0.0 WSW 6 7 3 4 1004.3 1001.8 0.0
14/09:00am 16.7 19.0 16.7 100 0.0 CALM 0 0 0 0 1004.3 1001.8 62.0
14/08:30am 16.5 18.7 16.5 100 0.0 CALM 0 0 0 0 1004.3 1001.8 62.0
14/08:00am 16.2 18.3 16.2 100 0.0 CALM 0 0 0 0 1004.2 1001.7 62.0
14/07:30am 16.0 17.6 16.0 100 0.0 SSE 2 7 1 4 1003.9 1001.4 62.0
14/07:00am 15.5 16.2 15.5 100 0.0 WSW 6 9 3 5 1003.6 1001.1 62.0

Latest Capital City Observations: Canberra | Sydney | Melbourne | Brisbane | Adelaide | Perth | Hobart | Darwin

Other Formats:

Comma delimited format used in spreadsheet applications
http://www.bom.gov.au/fwo/IDN60903/IDN60903.94925.axf

JavaScript Object Notation format (JSON) in row-major order
http://www.bom.gov.au/fwo/IDN60903/IDN60903.94925.json